createdAt,value
2023-02-14T00:04:25.390Z,-3.50
2023-02-14T00:09:29.348Z,-3.50
2023-02-14T00:14:52.250Z,-3.71
2023-02-14T00:19:56.264Z,-3.86
2023-02-14T00:25:00.232Z,-3.80
2023-02-14T00:30:06.394Z,-3.78
2023-02-14T00:35:11.306Z,-3.86
2023-02-14T00:40:18.130Z,-3.80
2023-02-14T00:45:23.519Z,-3.72
2023-02-14T00:50:27.504Z,-3.77
2023-02-14T00:55:31.408Z,-3.68
2023-02-14T01:00:36.797Z,-3.74
2023-02-14T01:05:40.847Z,-3.75
2023-02-14T01:10:45.329Z,-3.87
2023-02-14T01:15:54.574Z,-3.75
2023-02-14T01:20:58.730Z,-3.91
2023-02-14T01:26:06.458Z,-3.99
2023-02-14T01:31:14.005Z,-3.66
2023-02-14T01:36:20.291Z,-3.94
2023-02-14T01:41:25.325Z,-3.73
2023-02-14T01:46:33.850Z,-3.51
2023-02-14T01:51:42.667Z,-3.56
2023-02-14T01:56:52.704Z,-3.47
2023-02-14T02:01:58.427Z,-3.79
2023-02-14T02:07:06.120Z,-3.77
2023-02-14T02:12:10.218Z,-3.66
2023-02-14T02:17:28.058Z,-3.72
2023-02-14T02:22:59.904Z,-3.26
2023-02-14T02:28:40.080Z,-3.71
2023-02-14T02:34:11.478Z,-3.50
2023-02-14T02:39:29.215Z,-3.89
2023-02-14T02:44:50.806Z,-3.71
2023-02-14T02:50:21.641Z,-3.52
2023-02-14T02:55:54.966Z,-3.71
2023-02-14T03:01:01.221Z,-3.78
2023-02-14T03:06:06.130Z,-3.89
2023-02-14T03:11:14.708Z,-3.94
2023-02-14T03:16:33.611Z,-4.08
2023-02-14T03:21:45.468Z,-4.01
2023-02-14T03:26:55.541Z,-4.04
2023-02-14T03:32:05.096Z,-4.01
2023-02-14T03:37:15.982Z,-4.48
2023-02-14T03:42:26.414Z,-4.48
2023-02-14T03:47:34.369Z,-4.31
2023-02-14T03:52:40.060Z,-4.49
2023-02-14T03:57:52.504Z,-4.85
2023-02-14T04:03:03.360Z,-4.37
2023-02-14T04:08:07.272Z,-4.65
2023-02-14T04:13:12.515Z,-4.54
2023-02-14T04:18:34.293Z,-4.54
2023-02-14T04:23:38.536Z,-4.59
2023-02-14T04:28:43.950Z,-4.48
2023-02-14T04:33:48.220Z,-4.67
2023-02-14T04:38:52.155Z,-4.48
2023-02-14T04:43:59.055Z,-4.53
2023-02-14T04:49:02.711Z,-4.83
2023-02-14T04:54:07.015Z,-4.76
2023-02-14T04:59:12.346Z,-4.96
2023-02-14T05:04:16.371Z,-4.88
2023-02-14T05:09:20.355Z,-4.86
2023-02-14T05:14:25.676Z,-4.91
2023-02-14T05:19:29.691Z,-4.87
2023-02-14T05:24:33.607Z,-4.81
2023-02-14T05:29:39.069Z,-4.84
2023-02-14T05:34:43.012Z,-4.71
2023-02-14T05:39:46.971Z,-4.85
2023-02-14T05:44:52.303Z,-4.59
2023-02-14T05:49:56.249Z,-4.45
2023-02-14T05:55:00.467Z,-4.25
2023-02-14T06:00:07.655Z,-3.99
2023-02-14T06:05:18.371Z,-3.78
2023-02-14T06:10:24.432Z,-3.60
2023-02-14T06:15:29.842Z,-3.04
2023-02-14T06:20:34.079Z,-2.84
2023-02-14T06:25:38.053Z,-2.42
2023-02-14T06:30:43.509Z,-2.04
2023-02-14T06:35:47.622Z,-1.42
2023-02-14T06:40:51.539Z,-0.89
2023-02-14T06:45:56.874Z,-0.57
2023-02-14T06:51:01.116Z,0.11
2023-02-14T06:56:09.132Z,0.73
2023-02-14T07:01:14.508Z,1.15
2023-02-14T07:06:18.490Z,1.30
2023-02-14T07:11:22.456Z,1.06
2023-02-14T07:16:27.780Z,1.63
2023-02-14T07:21:31.742Z,2.30
2023-02-14T07:26:35.705Z,2.13
2023-02-14T07:31:41.206Z,2.15
2023-02-14T07:36:45.416Z,2.45
2023-02-14T07:41:49.401Z,2.57
2023-02-14T07:46:57.621Z,3.19
2023-02-14T07:52:01.944Z,3.79
2023-02-14T07:57:06.035Z,4.14
2023-02-14T08:02:13.567Z,4.45
2023-02-14T08:07:17.569Z,4.12
2023-02-14T08:12:42.262Z,4.59
2023-02-14T08:17:47.627Z,4.49
2023-02-14T08:22:51.540Z,5.13
2023-02-14T08:27:55.800Z,5.65
2023-02-14T08:33:01.284Z,6.34
2023-02-14T08:38:06.251Z,6.57
2023-02-14T08:43:10.598Z,6.64
2023-02-14T08:48:16.183Z,6.29
2023-02-14T08:53:22.157Z,7.40
2023-02-14T08:58:26.043Z,7.02
2023-02-14T09:03:31.488Z,7.83
2023-02-14T09:08:35.918Z,8.13
2023-02-14T09:13:39.976Z,6.90
2023-02-14T09:18:46.205Z,7.69
2023-02-14T09:23:50.255Z,7.80
2023-02-14T09:28:54.239Z,6.56
2023-02-14T09:33:59.682Z,5.22
2023-02-14T09:39:04.109Z,3.87
2023-02-14T09:44:13.796Z,3.36
2023-02-14T09:49:22.310Z,5.29
2023-02-14T09:54:29.849Z,5.69
2023-02-14T09:59:40.843Z,6.03
2023-02-14T10:04:55.890Z,5.73
2023-02-14T10:10:08.452Z,6.06
2023-02-14T10:15:20.147Z,7.29
2023-02-14T10:20:31.465Z,7.82
2023-02-14T10:25:43.888Z,6.08
2023-02-14T10:30:58.876Z,7.59
2023-02-14T10:43:23.471Z,4.33
2023-02-14T10:48:38.085Z,4.44
2023-02-14T10:53:50.606Z,5.11
2023-02-14T10:58:57.787Z,4.72
2023-02-14T11:04:06.647Z,4.59
2023-02-14T11:09:12.291Z,4.42
2023-02-14T11:14:27.947Z,4.85
2023-02-14T11:19:37.271Z,3.94
2023-02-14T11:24:42.490Z,4.12
2023-02-14T11:29:52.540Z,3.74
2023-02-14T11:35:01.617Z,3.65
2023-02-14T11:40:07.242Z,4.30
2023-02-14T11:45:29.862Z,5.37
2023-02-14T11:50:34.032Z,3.44
2023-02-14T11:55:38.345Z,3.13
2023-02-14T12:00:53.225Z,2.97
2023-02-14T12:06:00.752Z,2.84
2023-02-14T12:15:41.511Z,2.41
2023-02-14T12:20:51.164Z,2.67
2023-02-14T12:26:01.463Z,2.43
2023-02-14T12:31:12.584Z,2.23
2023-02-14T12:36:27.303Z,2.39
2023-02-14T12:41:43.148Z,2.36
2023-02-14T12:47:06.831Z,2.18
2023-02-14T12:52:29.688Z,1.90
2023-02-14T12:57:45.006Z,1.87
2023-02-14T13:03:23.237Z,2.05
2023-02-14T13:08:43.850Z,1.84
2023-02-14T13:13:57.209Z,2.10
2023-02-14T13:19:08.250Z,1.94
2023-02-14T13:24:21.122Z,1.61
2023-02-14T13:29:28.311Z,1.90
2023-02-14T13:34:36.456Z,1.97
2023-02-14T13:39:44.269Z,2.02
2023-02-14T13:44:50.098Z,1.70
2023-02-14T13:49:58.472Z,1.87
2023-02-14T13:55:04.483Z,2.04
2023-02-14T14:00:48.026Z,2.25
2023-02-14T14:06:08.600Z,2.37
2023-02-14T14:11:29.691Z,1.80
2023-02-14T14:16:36.601Z,2.41
2023-02-14T14:21:44.641Z,1.77
2023-02-14T14:26:50.258Z,1.66
2023-02-14T14:31:56.594Z,1.51
2023-02-14T14:37:07.617Z,1.57
2023-02-14T14:42:16.068Z,1.68
2023-02-14T14:47:24.482Z,1.65
2023-02-14T14:52:37.918Z,1.86
2023-02-14T14:57:41.923Z,1.74
2023-02-14T15:02:57.435Z,1.56
2023-02-14T15:08:22.073Z,1.64
2023-02-14T15:13:53.912Z,1.54
2023-02-14T15:19:00.958Z,1.54
2023-02-14T15:24:12.424Z,1.26
2023-02-14T15:29:23.770Z,1.11
2023-02-14T15:34:31.815Z,1.03
2023-02-14T15:39:39.530Z,0.97
2023-02-14T15:44:43.501Z,0.93
2023-02-14T15:49:47.719Z,0.90
2023-02-14T15:54:53.096Z,0.88
2023-02-14T15:59:57.078Z,0.84
2023-02-14T16:05:07.488Z,0.70
2023-02-14T16:10:27.431Z,0.75
2023-02-14T16:15:34.641Z,0.76
2023-02-14T16:20:43.382Z,0.74
2023-02-14T16:25:48.817Z,0.67
2023-02-14T16:30:56.320Z,0.67
2023-02-14T16:36:09.587Z,0.68
2023-02-14T16:41:21.347Z,0.59
2023-02-14T16:46:29.704Z,0.64
2023-02-14T16:51:35.602Z,0.45
2023-02-14T16:56:44.839Z,0.49
2023-02-14T17:01:48.997Z,0.44
2023-02-14T17:06:55.178Z,0.52
2023-02-14T17:12:04.091Z,0.56
2023-02-14T17:17:08.350Z,0.60
2023-02-14T17:22:14.100Z,0.55
2023-02-14T17:27:19.447Z,0.56
2023-02-14T17:32:24.102Z,0.48
2023-02-14T17:37:28.906Z,0.56
2023-02-14T17:42:35.330Z,0.62
2023-02-14T17:47:40.520Z,0.63
2023-02-14T17:52:45.017Z,0.54
2023-02-14T17:57:52.565Z,0.50
2023-02-14T18:02:56.500Z,0.60
2023-02-14T18:08:00.408Z,0.57
2023-02-14T18:13:05.714Z,0.48
2023-02-14T18:18:11.966Z,0.57
2023-02-14T18:23:15.882Z,0.57
2023-02-14T18:28:21.797Z,0.59
2023-02-14T18:33:25.765Z,0.59
2023-02-14T18:38:29.738Z,0.47
2023-02-14T18:43:35.202Z,0.71
2023-02-14T18:48:42.908Z,0.56
2023-02-14T18:53:47.685Z,0.55
2023-02-14T18:58:59.291Z,0.58
2023-02-14T19:04:03.721Z,0.55
2023-02-14T19:09:10.012Z,0.55
2023-02-14T19:14:15.349Z,0.54
2023-02-14T19:19:19.725Z,0.31
2023-02-14T19:24:25.703Z,0.47
2023-02-14T19:29:33.629Z,0.33
2023-02-14T19:34:38.411Z,0.24
2023-02-14T19:39:42.277Z,0.28
2023-02-14T19:44:47.578Z,0.28
2023-02-14T19:49:51.526Z,0.29
2023-02-14T19:54:57.480Z,0.31
2023-02-14T20:00:04.099Z,0.41
2023-02-14T20:05:15.859Z,0.36
2023-02-14T20:10:19.952Z,0.30
2023-02-14T20:15:26.394Z,0.17
2023-02-14T20:20:50.411Z,0.13
2023-02-14T20:25:54.476Z,0.03
2023-02-14T20:31:00.030Z,0.10
2023-02-14T20:36:06.171Z,-0.29
2023-02-14T20:41:12.408Z,-0.27
2023-02-14T20:46:17.751Z,0.06
2023-02-14T20:51:23.250Z,-0.11
2023-02-14T20:56:27.286Z,-0.18
2023-02-14T21:01:32.607Z,-0.14
2023-02-14T21:06:39.630Z,-0.38
2023-02-14T21:11:43.986Z,-0.45
2023-02-14T21:16:49.328Z,-0.50
2023-02-14T21:21:53.226Z,-0.55
2023-02-14T21:26:57.249Z,-0.88
2023-02-14T21:32:03.811Z,-0.94
2023-02-14T21:37:08.044Z,-0.90
2023-02-14T21:42:12.449Z,-0.93
2023-02-14T21:47:17.721Z,-1.01
2023-02-14T21:52:21.758Z,-0.80
2023-02-14T21:57:26.072Z,-0.90
2023-02-14T22:02:31.441Z,-1.02
2023-02-14T22:07:35.461Z,-1.33
2023-02-14T22:12:39.369Z,-1.33
2023-02-14T22:17:45.116Z,-1.22
2023-02-14T22:22:49.031Z,-1.47
2023-02-14T22:27:52.911Z,-1.52
2023-02-14T22:32:58.505Z,-1.50
2023-02-14T22:38:02.399Z,-1.34
2023-02-14T22:43:06.259Z,-1.40
2023-02-14T22:48:11.702Z,-1.23
2023-02-14T22:53:15.574Z,-1.20
2023-02-14T22:58:19.447Z,-1.12
2023-02-14T23:03:24.719Z,-1.07
2023-02-14T23:08:28.564Z,-1.25
2023-02-14T23:13:55.250Z,-1.25
2023-02-14T23:19:18.211Z,-0.87
2023-02-14T23:24:22.377Z,-0.98
2023-02-14T23:29:26.361Z,-0.89
2023-02-14T23:34:34.041Z,-0.57
2023-02-14T23:39:37.968Z,-0.49
2023-02-14T23:44:43.507Z,-0.63
2023-02-14T23:49:48.787Z,-0.62
2023-02-14T23:54:52.700Z,-0.69
2023-02-14T23:59:56.584Z,-0.70
